Time;durP1;ratioP1;P1;durP2;ratioP2;P2;SDS_P1;SDS_P2;PMS_P1;PMS_P2;Temp;Humidity;BMP_temperature;BMP_pressure;BME280_temperature;BME280_humidity;BME280_pressure;Samples;Min_cycle;Max_cycle;Signal;HPM_P1;HPM_P2
2021/07/12 00:00:27;;;;;;;16.08;7.72;;;;;;;19.66;67.02;101325.56;5073556;28;20056;-53
2021/07/12 00:02:55;;;;;;;12.77;8.20;;;;;;;19.64;66.84;101328.66;5072668;28;20048;-52
2021/07/12 00:05:24;;;;;;;10.68;8.38;;;;;;;19.62;66.80;101330.09;5054304;28;20106;-53
2021/07/12 00:07:52;;;;;;;11.35;8.13;;;;;;;19.53;67.32;101327.28;5054874;28;20052;-53
2021/07/12 00:10:25;;;;;;;11.25;7.88;;;;;;;19.43;67.52;101328.34;5073382;28;20040;-54
2021/07/12 00:12:53;;;;;;;10.95;7.80;;;;;;;19.34;67.79;101328.31;5072572;28;20047;-55
2021/07/12 00:15:22;;;;;;;10.82;7.85;;;;;;;19.30;67.74;101321.78;5072919;28;20061;-51
2021/07/12 00:17:50;;;;;;;12.00;7.82;;;;;;;19.29;67.98;101324.84;5072878;28;20478;-52
2021/07/12 00:20:18;;;;;;;11.38;8.15;;;;;;;19.26;68.00;101314.44;5073433;28;20480;-54
2021/07/12 00:22:48;;;;;;;13.23;8.20;;;;;;;19.21;68.33;101309.03;5073199;28;20043;-52
2021/07/12 00:25:20;;;;;;;12.63;7.45;;;;;;;19.19;68.40;101308.53;5072993;28;20064;-54
2021/07/12 00:27:48;;;;;;;13.23;8.50;;;;;;;19.14;68.31;101304.75;5072839;28;20055;-53
2021/07/12 00:30:18;;;;;;;13.68;8.93;;;;;;;19.11;68.41;101305.41;5054883;28;20384;-52
2021/07/12 00:32:46;;;;;;;11.52;8.10;;;;;;;19.06;68.47;101301.94;5073098;28;20044;-55
2021/07/12 00:35:15;;;;;;;11.75;8.70;;;;;;;19.03;68.52;101299.81;5072888;28;20033;-53
2021/07/12 00:37:43;;;;;;;11.20;7.95;;;;;;;19.03;68.55;101306.16;5073140;28;20044;-55
2021/07/12 00:40:14;;;;;;;13.70;8.98;;;;;;;19.06;68.58;101302.75;5072673;28;20068;-53
2021/07/12 00:42:43;;;;;;;12.70;9.50;;;;;;;19.08;68.18;101300.50;5055231;28;20044;-52
2021/07/12 00:45:27;;;;;;;12.20;8.65;;;;;;;19.07;68.21;101298.88;5087907;28;20049;-52
2021/07/12 00:48:04;;;;;;;12.77;8.50;;;;;;;19.07;68.18;101298.88;5071662;28;20483;-52
2021/07/12 00:50:35;;;;;;;13.02;8.68;;;;;;;19.06;68.09;101291.72;5073011;28;20039;-54
2021/07/12 00:53:04;;;;;;;12.13;8.30;;;;;;;19.03;68.27;101283.25;5072478;28;20036;-51
2021/07/12 00:55:46;;;;;;;14.07;8.73;;;;;;;18.96;68.93;101283.69;5072369;28;20072;-50
2021/07/12 00:58:17;;;;;;;10.77;8.35;;;;;;;18.87;68.93;101278.09;5054400;28;20043;-50
2021/07/12 01:00:47;;;;;;;11.00;8.30;;;;;;;18.84;68.89;101286.19;5072043;28;20043;-50
2021/07/12 01:03:16;;;;;;;13.02;8.65;;;;;;;18.81;69.30;101278.50;5072440;28;20043;-48
2021/07/12 01:05:44;;;;;;;11.23;8.32;;;;;;;18.79;69.39;101284.38;5072368;28;20076;-50
2021/07/12 01:08:14;;;;;;;11.63;8.68;;;;;;;18.82;69.40;101280.97;5088175;28;20441;-53
2021/07/12 01:11:14;;;;;;;12.95;8.77;;;;;;;18.93;68.87;101278.81;5072568;28;20491;-54
2021/07/12 01:14:05;;;;;;;12.95;8.85;;;;;;;18.95;68.73;101262.72;5071814;28;20051;-56
2021/07/12 01:16:50;;;;;;;13.07;8.50;;;;;;;18.91;68.77;101264.50;5054065;28;20406;-54
2021/07/12 01:19:54;;;;;;;14.88;9.00;;;;;;;18.84;68.96;101262.16;5072025;28;20518;-55
2021/07/12 01:22:59;;;;;;;11.38;8.32;;;;;;;18.78;69.24;101251.53;5071835;28;20123;-55
2021/07/12 01:25:45;;;;;;;;;;;;;;;18.71;69.50;101250.03;5072674;28;20054;-55
2021/07/12 01:28:36;;;;;;;10.82;8.45;;;;;;;18.68;69.64;101242.34;5072192;28;19924;-55
2021/07/12 01:31:25;;;;;;;11.50;8.45;;;;;;;18.65;69.87;101253.22;5071789;28;20470;-53
2021/07/12 01:34:05;;;;;;;12.27;9.02;;;;;;;18.69;69.77;101259.75;5072175;28;20044;-54
2021/07/12 01:37:09;;;;;;;11.75;8.57;;;;;;;18.74;69.52;101249.38;5038257;28;20041;-56
2021/07/12 01:40:10;;;;;;;15.35;9.07;;;;;;;18.79;69.22;101253.19;5054175;28;20046;-55
2021/07/12 01:42:56;;;;;;;10.55;8.70;;;;;;;18.76;69.29;101251.00;5050749;28;20048;-56
2021/07/12 01:45:28;;;;;;;12.55;8.98;;;;;;;18.71;69.63;101255.53;5071916;28;20561;-54
2021/07/12 01:48:16;;;;;;;12.20;8.90;;;;;;;18.68;69.64;101261.66;5070781;28;20517;-54
2021/07/12 01:50:54;;;;;;;10.45;8.52;;;;;;;18.62;69.91;101251.06;5054414;28;20051;-53
2021/07/12 01:53:47;;;;;;;13.73;9.18;;;;;;;18.59;69.90;101251.69;5055014;28;20558;-52
2021/07/12 01:56:39;;;;;;;12.93;9.43;;;;;;;18.55;70.36;101254.25;5071616;28;20052;-53
2021/07/12 01:59:09;;;;;;;13.85;9.10;;;;;;;18.47;70.51;101257.75;5053844;28;20048;-52
2021/07/12 02:01:39;;;;;;;11.27;9.38;;;;;;;18.42;70.62;101252.34;5034163;28;20491;-51
2021/07/12 02:04:10;;;;;;;13.10;9.60;;;;;;;18.37;70.84;101252.47;5062247;28;20123;-49
2021/07/12 02:06:40;;;;;;;13.27;9.23;;;;;;;18.31;71.15;101244.31;5054108;28;20119;-54
2021/07/12 02:09:13;;;;;;;12.98;9.48;;;;;;;18.25;71.34;101240.00;5034806;28;20087;-53
2021/07/12 02:11:45;;;;;;;13.98;9.38;;;;;;;18.23;71.42;101246.97;5054265;28;20457;-52
2021/07/12 02:14:20;;;;;;;12.70;9.27;;;;;;;18.24;71.42;101238.38;5053492;28;20037;-52
2021/07/12 02:16:52;;;;;;;12.75;8.60;;;;;;;18.25;71.35;101239.19;5037829;28;20044;-52
2021/07/12 02:19:21;;;;;;;14.20;9.00;;;;;;;18.24;71.43;101230.13;5034147;28;20118;-53
2021/07/12 02:21:53;;;;;;;12.73;9.23;;;;;;;18.22;71.45;101231.56;5029668;28;20429;-50
2021/07/12 02:24:50;;;;;;;13.50;9.60;;;;;;;18.21;71.74;101233.50;4978015;28;20046;-48
2021/07/12 02:27:21;;;;;;;10.75;9.00;;;;;;;18.23;71.56;101230.41;4989440;28;20054;-53
2021/07/12 02:29:49;;;;;;;13.00;9.20;;;;;;;18.23;71.59;101230.41;4990156;28;20050;-51
2021/07/12 02:32:20;;;;;;;12.30;9.68;;;;;;;18.24;71.57;101230.13;4989838;28;20137;-49
2021/07/12 02:34:49;;;;;;;13.25;8.77;;;;;;;18.26;71.56;101229.81;4991258;28;20059;-50
2021/07/12 02:37:19;;;;;;;14.95;8.70;;;;;;;18.28;71.44;101217.34;4993697;28;20050;-52
2021/07/12 02:39:47;;;;;;;11.93;9.13;;;;;;;18.24;71.54;101216.31;4993678;28;20052;-53
2021/07/12 02:42:15;;;;;;;15.15;9.27;;;;;;;18.18;71.84;101213.97;4993045;28;20145;-53
2021/07/12 02:44:50;;;;;;;12.27;8.23;;;;;;;18.14;71.97;101211.03;4973883;28;20049;-53
2021/07/12 02:47:19;;;;;;;15.93;9.05;;;;;;;18.13;72.35;101214.09;4969806;28;20552;-48
2021/07/12 02:49:48;;;;;;;14.63;8.95;;;;;;;18.10;72.45;101210.03;4993284;28;20039;-48
2021/07/12 02:52:26;;;;;;;24.85;9.65;;;;;;;18.08;72.48;101206.75;4961549;28;20062;-50
2021/07/12 02:55:00;;;;;;;13.00;8.73;;;;;;;18.04;72.46;101206.56;4977655;28;20150;-52
2021/07/12 02:57:28;;;;;;;12.55;9.20;;;;;;;18.03;72.54;101195.84;4992919;28;20143;-50
2021/07/12 03:00:02;;;;;;;13.50;9.57;;;;;;;18.02;72.91;101202.50;4976994;28;20069;-52
2021/07/12 03:02:34;;;;;;;14.93;8.93;;;;;;;18.06;72.77;101203.47;5056809;28;20450;-52
2021/07/12 03:05:05;;;;;;;13.20;9.13;;;;;;;18.10;72.47;101201.75;5056941;28;20380;-52
2021/07/12 03:07:41;;;;;;;17.48;9.43;;;;;;;18.05;72.56;101196.34;5075114;28;20041;-51
2021/07/12 03:10:14;;;;;;;12.25;8.27;;;;;;;17.98;72.99;101191.25;5074530;28;20044;-55
2021/07/12 03:12:51;;;;;;;17.05;9.00;;;;;;;17.94;73.13;101194.94;5074650;28;20127;-55
2021/07/12 03:15:33;;;;;;;15.32;9.40;;;;;;;17.95;73.03;101197.38;5090072;28;20045;-56
2021/07/12 03:18:04;;;;;;;13.90;8.55;;;;;;;17.97;73.26;101199.84;5056806;28;20461;-56
2021/07/12 03:20:34;;;;;;;12.25;8.85;;;;;;;18.01;73.04;101201.66;5089947;28;20041;-53
2021/07/12 03:23:03;;;;;;;13.68;8.63;;;;;;;18.03;72.94;101188.38;5037310;28;20045;-56
2021/07/12 03:25:35;;;;;;;10.93;8.20;;;;;;;18.04;72.80;101184.50;5050473;28;20890;-55
2021/07/12 03:28:04;;;;;;;13.13;8.50;;;;;;;18.09;72.76;101186.34;5074514;28;20213;-53
2021/07/12 03:30:35;;;;;;;15.07;9.10;;;;;;;18.12;72.35;101182.94;5056512;28;20055;-51
2021/07/12 03:33:04;;;;;;;15.60;8.93;;;;;;;18.12;72.30;101193.97;5056055;28;20411;-52
2021/07/12 03:35:44;;;;;;;11.32;8.52;;;;;;;18.15;72.26;101185.09;5056504;28;20493;-54
2021/07/12 03:38:15;;;;;;;12.82;9.32;;;;;;;18.17;72.20;101182.03;5056288;28;20102;-53
2021/07/12 03:40:44;;;;;;;13.38;9.75;;;;;;;18.17;71.69;101177.31;5056434;28;20045;-54
2021/07/12 03:43:13;;;;;;;13.18;10.25;;;;;;;18.07;72.27;101166.53;5025916;28;20036;-52
2021/07/12 03:45:51;;;;;;;11.38;9.60;;;;;;;17.99;72.49;101170.00;5089360;28;20445;-48
2021/07/12 03:48:19;;;;;;;;;;;;;;;17.97;72.57;101177.78;5043145;28;20055;-51
2021/07/12 03:50:47;;;;;;;13.00;10.20;;;;;;;17.98;72.60;101171.94;5056258;28;19924;-52
2021/07/12 03:53:15;;;;;;;14.55;9.38;;;;;;;17.95;72.59;101169.00;5089066;28;20494;-53
2021/07/12 03:55:42;;;;;;;16.17;10.35;;;;;;;17.88;72.73;101159.19;5055965;28;20056;-52
2021/07/12 03:58:10;;;;;;;15.73;10.63;;;;;;;17.82;73.04;101165.13;5073285;28;20076;-51
2021/07/12 04:00:38;;;;;;;14.82;11.25;;;;;;;17.79;73.15;101160.22;5073725;28;20051;-57
2021/07/12 04:03:05;;;;;;;15.68;10.57;;;;;;;17.78;73.11;101155.84;5073664;28;20049;-55
2021/07/12 04:05:34;;;;;;;12.57;10.68;;;;;;;17.80;73.19;101167.38;5073668;28;20044;-54
2021/07/12 04:08:02;;;;;;;12.15;10.57;;;;;;;17.86;73.15;101164.19;5073449;28;20056;-54
2021/07/12 04:10:29;;;;;;;12.88;10.73;;;;;;;17.91;72.92;101156.97;5073307;28;20037;-55
2021/07/12 04:12:57;;;;;;;15.57;11.45;;;;;;;17.90;72.85;101163.59;5073517;28;20037;-53
2021/07/12 04:15:25;;;;;;;15.13;11.20;;;;;;;17.88;73.01;101166.66;5073081;28;20040;-49
2021/07/12 04:17:52;;;;;;;14.95;10.82;;;;;;;17.90;73.00;101169.13;5073604;28;20046;-53
2021/07/12 04:20:20;;;;;;;16.38;11.05;;;;;;;17.98;72.82;101173.91;5055180;28;20048;-52
2021/07/12 04:22:48;;;;;;;13.93;11.25;;;;;;;18.06;72.53;101176.75;5059097;28;20176;-52
2021/07/12 04:25:15;;;;;;;12.05;9.48;;;;;;;18.13;72.12;101170.78;5073360;28;20045;-51
2021/07/12 04:27:43;;;;;;;15.07;10.77;;;;;;;18.19;71.92;101172.31;5072955;28;20044;-52
2021/07/12 04:30:11;;;;;;;13.70;11.18;;;;;;;18.23;71.54;101172.50;5073334;28;20117;-53
2021/07/12 04:32:39;;;;;;;15.82;11.82;;;;;;;18.20;71.62;101171.16;5073099;28;20053;-55
2021/07/12 04:35:07;;;;;;;13.98;10.95;;;;;;;18.16;71.77;101170.19;5073078;28;20052;-52
2021/07/12 04:37:35;;;;;;;18.25;11.30;;;;;;;18.15;71.92;101168.53;5054769;28;20141;-53
2021/07/12 04:40:02;;;;;;;13.25;10.98;;;;;;;18.15;72.04;101171.28;5072835;28;20043;-52
2021/07/12 04:42:31;;;;;;;18.58;10.10;;;;;;;18.16;72.15;101161.06;5072560;28;20044;-52
2021/07/12 04:44:58;;;;;;;14.50;11.25;;;;;;;18.18;71.89;101167.91;5072894;28;20062;-54
2021/07/12 04:47:26;;;;;;;14.77;12.45;;;;;;;18.19;72.03;101163.22;5072819;28;20048;-52
2021/07/12 04:49:55;;;;;;;15.40;12.05;;;;;;;18.14;72.24;101155.06;5054641;28;20036;-52
2021/07/12 04:52:22;;;;;;;17.67;12.43;;;;;;;18.09;72.55;101154.06;5072477;28;20033;-52
2021/07/12 04:54:50;;;;;;;15.00;11.50;;;;;;;18.07;72.68;101161.00;5087822;28;20060;-53
2021/07/12 04:57:17;;;;;;;14.93;12.13;;;;;;;18.07;72.74;101161.00;5072023;28;20055;-53
2021/07/12 04:59:45;;;;;;;14.82;12.18;;;;;;;18.08;72.93;101160.69;5072223;28;20052;-52
2021/07/12 05:02:13;;;;;;;19.83;13.55;;;;;;;18.11;73.03;101156.47;5072421;28;20040;-51
2021/07/12 05:04:41;;;;;;;20.45;13.27;;;;;;;18.13;73.02;101157.00;5072338;28;20068;-53
2021/07/12 05:07:11;;;;;;;17.63;13.70;;;;;;;18.10;73.22;101160.38;5072225;28;20050;-53
2021/07/12 05:09:38;;;;;;;17.50;13.20;;;;;;;18.09;73.04;101145.78;5054694;28;20453;-52
2021/07/12 05:12:09;;;;;;;17.65;13.63;;;;;;;18.09;73.17;101137.50;5072305;28;20059;-53
2021/07/12 05:14:38;;;;;;;16.88;12.68;;;;;;;18.12;73.27;101124.22;5087101;28;20523;-51
2021/07/12 05:17:06;;;;;;;21.45;14.15;;;;;;;18.14;73.28;101128.31;5087501;28;20059;-53
2021/07/12 05:19:34;;;;;;;18.13;12.18;;;;;;;18.18;72.91;101131.25;5072580;28;20063;-52
2021/07/12 05:22:01;;;;;;;16.90;10.85;;;;;;;18.19;72.80;101128.19;5071922;28;20032;-51
2021/07/12 05:24:29;;;;;;;17.88;13.82;;;;;;;18.22;72.84;101121.22;5057953;28;20517;-55
2021/07/12 05:26:57;;;;;;;18.10;11.93;;;;;;;18.25;72.60;101115.06;5072380;28;20059;-51
2021/07/12 05:29:24;;;;;;;17.58;14.13;;;;;;;18.26;72.34;101125.81;5071466;28;20067;-53
2021/07/12 05:31:52;;;;;;;19.25;14.18;;;;;;;18.21;72.83;101120.41;5072227;28;20052;-53
2021/07/12 05:34:19;;;;;;;19.17;13.32;;;;;;;18.19;73.21;101119.09;5071642;28;20036;-55
2021/07/12 05:36:47;;;;;;;20.30;14.73;;;;;;;18.20;73.12;101116.00;5073433;28;20444;-53
2021/07/12 05:39:15;;;;;;;20.90;13.25;;;;;;;18.25;73.00;101109.56;5071678;28;20052;-55
2021/07/12 05:41:44;;;;;;;22.38;14.75;;;;;;;18.28;72.85;101112.53;5071870;28;20041;-53
2021/07/12 05:44:12;;;;;;;18.20;15.07;;;;;;;18.30;73.00;101110.28;5053868;28;20442;-54
2021/07/12 05:46:40;;;;;;;13.98;9.90;;;;;;;18.35;72.65;101102.97;5071731;28;20044;-54
2021/07/12 05:49:07;;;;;;;21.02;15.98;;;;;;;18.35;72.98;101097.47;5071812;28;20044;-57
2021/07/12 05:51:35;;;;;;;22.98;15.80;;;;;;;18.36;73.22;101101.88;5071314;28;20045;-53
2021/07/12 05:54:02;;;;;;;19.08;12.40;;;;;;;18.40;72.77;101097.31;5071546;28;20482;-55
2021/07/12 05:56:30;;;;;;;13.20;9.70;;;;;;;18.47;72.48;101097.69;5071778;28;20041;-53
2021/07/12 05:58:58;;;;;;;40.85;14.57;;;;;;;18.53;72.19;101099.22;5071764;28;20060;-53
2021/07/12 06:01:45;;;;;;;26.65;14.73;;;;;;;18.58;72.00;101106.56;5071151;28;20457;-53
2021/07/12 06:04:13;;;;;;;19.60;12.30;;;;;;;18.63;71.72;101107.22;5071434;28;20033;-56
2021/07/12 06:06:40;;;;;;;13.45;9.20;;;;;;;18.66;71.54;101100.25;5071648;28;20048;-56
2021/07/12 06:09:08;;;;;;;19.50;11.15;;;;;;;18.67;71.58;101099.94;5072060;28;20029;-57
2021/07/12 06:11:35;;;;;;;21.02;12.70;;;;;;;18.71;71.33;101100.97;5075585;28;20067;-56
2021/07/12 06:14:03;;;;;;;22.05;12.02;;;;;;;18.74;71.10;101097.56;5075291;28;20047;-53
2021/07/12 06:16:31;;;;;;;19.95;13.00;;;;;;;18.74;71.05;101092.03;5075709;28;20123;-55
2021/07/12 06:18:58;;;;;;;17.98;12.73;;;;;;;18.76;70.90;101088.13;5074892;28;20051;-55
2021/07/12 06:21:26;;;;;;;17.90;12.95;;;;;;;18.75;71.11;101092.84;5075412;28;20658;-51
2021/07/12 06:23:55;;;;;;;18.55;13.40;;;;;;;18.73;71.18;101095.91;5075425;28;20067;-55
2021/07/12 06:26:22;;;;;;;16.23;10.45;;;;;;;18.79;71.18;101098.59;5075518;28;20416;-55
2021/07/12 06:28:50;;;;;;;22.60;13.90;;;;;;;18.84;71.63;101101.22;5075030;28;20044;-51
2021/07/12 06:31:17;;;;;;;18.48;12.32;;;;;;;18.90;70.73;101108.22;5061179;28;20048;-51
2021/07/12 06:33:45;;;;;;;17.90;12.90;;;;;;;18.92;70.86;101111.47;5074768;28;20048;-49
2021/07/12 06:36:13;;;;;;;17.70;13.15;;;;;;;18.96;70.70;101111.66;5075125;28;20047;-51
2021/07/12 06:38:41;;;;;;;19.73;13.02;;;;;;;19.00;70.71;101110.72;5074844;28;20502;-50
2021/07/12 06:41:09;;;;;;;18.75;13.07;;;;;;;19.04;70.68;101116.41;5074737;28;20046;-52
2021/07/12 06:43:36;;;;;;;23.80;13.13;;;;;;;19.07;70.32;101115.75;5057013;28;20457;-54
2021/07/12 06:46:04;;;;;;;34.50;16.67;;;;;;;19.12;70.39;101113.69;5074443;28;20045;-51
2021/07/12 06:48:31;;;;;;;23.08;13.90;;;;;;;19.18;70.04;101105.25;5056820;28;20052;-54
2021/07/12 06:51:15;;;;;;;18.27;13.40;;;;;;;19.22;70.54;101106.22;5056961;28;20044;-56
2021/07/12 06:53:42;;;;;;;17.55;13.70;;;;;;;19.24;70.38;101109.50;5074780;28;20510;-53
2021/07/12 06:56:11;;;;;;;18.25;12.23;;;;;;;19.28;70.38;101118.78;5056727;28;20072;-53
2021/07/12 06:58:39;;;;;;;17.98;12.98;;;;;;;19.30;70.17;101108.22;5074373;28;20067;-56
2021/07/12 07:01:07;;;;;;;19.67;14.95;;;;;;;19.34;69.96;101098.16;5056591;28;20056;-55
2021/07/12 07:03:35;;;;;;;24.80;18.13;;;;;;;19.37;69.82;101108.56;5074042;28;20487;-55
2021/07/12 07:06:04;;;;;;;19.30;15.73;;;;;;;19.39;69.78;101100.78;5056717;28;20119;-53
2021/07/12 07:08:37;;;;;;;18.45;12.73;;;;;;;19.44;69.18;101102.59;5074245;28;20498;-53
2021/07/12 07:11:09;;;;;;;18.95;14.20;;;;;;;19.47;69.42;101097.22;5074621;28;20445;-53
2021/07/12 07:13:37;;;;;;;23.73;17.63;;;;;;;19.51;69.38;101100.97;5073910;28;20032;-51
2021/07/12 07:16:06;;;;;;;15.05;12.05;;;;;;;19.54;69.06;101097.56;5056236;28;20071;-51
2021/07/12 07:18:34;;;;;;;15.95;11.32;;;;;;;19.58;68.86;101090.25;5073086;28;20391;-51
2021/07/12 07:21:05;;;;;;;17.17;12.10;;;;;;;19.62;69.31;101081.31;5056271;28;20080;-56
2021/07/12 07:23:33;;;;;;;14.15;10.65;;;;;;;19.67;68.99;101067.31;5074682;28;20424;-55
2021/07/12 07:26:00;;;;;;;14.73;10.80;;;;;;;19.71;68.61;101062.81;5074080;28;20115;-55
2021/07/12 07:28:30;;;;;;;12.80;9.57;;;;;;;19.75;68.38;101061.03;5072394;28;20052;-53
2021/07/12 07:30:58;;;;;;;19.50;9.05;;;;;;;19.78;68.29;101065.91;5056037;28;20047;-51
2021/07/12 07:33:26;;;;;;;23.63;8.48;;;;;;;19.82;68.17;101066.91;5074105;28;20053;-53
2021/07/12 07:35:53;;;;;;;20.10;9.63;;;;;;;19.86;67.65;101065.09;5055904;28;20090;-53
2021/07/12 07:38:21;;;;;;;13.23;8.52;;;;;;;19.90;67.08;101060.53;5074183;28;20049;-54
2021/07/12 07:40:49;;;;;;;14.20;9.40;;;;;;;19.97;67.14;101057.28;5073870;28;20045;-50
2021/07/12 07:43:17;;;;;;;15.98;9.02;;;;;;;20.01;66.26;101069.31;5073841;28;20625;-55
2021/07/12 07:45:44;;;;;;;13.85;8.68;;;;;;;20.04;66.39;101065.13;5073247;28;20044;-55
2021/07/12 07:48:12;;;;;;;13.25;7.25;;;;;;;20.05;66.03;101056.47;5055799;28;20041;-53
2021/07/12 07:50:42;;;;;;;18.73;8.57;;;;;;;20.05;66.21;101061.19;5073827;28;20055;-53
2021/07/12 07:53:10;;;;;;;15.70;7.95;;;;;;;20.05;65.72;101067.53;5073639;28;20582;-53
2021/07/12 07:55:40;;;;;;;14.60;9.75;;;;;;;20.06;65.54;101060.03;5073823;28;20052;-55
2021/07/12 07:58:07;;;;;;;18.63;9.35;;;;;;;20.08;65.66;101060.53;5073509;28;20105;-52
2021/07/12 08:00:36;;;;;;;14.35;9.30;;;;;;;20.11;66.16;101065.44;5073292;28;20076;-53
2021/07/12 08:03:07;;;;;;;13.43;8.82;;;;;;;20.15;66.16;101055.31;5073214;28;20054;-56
2021/07/12 08:05:35;;;;;;;14.40;7.97;;;;;;;20.18;66.21;101058.25;5073866;28;20052;-54
2021/07/12 08:08:03;;;;;;;13.48;9.18;;;;;;;20.22;66.01;101055.63;5073127;28;20054;-55
2021/07/12 08:10:31;;;;;;;12.10;8.02;;;;;;;20.27;65.53;101047.16;5055572;28;20059;-53
2021/07/12 08:13:07;;;;;;;11.23;7.93;;;;;;;20.31;65.22;101042.59;5056300;28;20045;-56
2021/07/12 08:15:34;;;;;;;14.00;8.10;;;;;;;20.35;65.48;101040.00;5072743;28;20090;-54
2021/07/12 08:18:03;;;;;;;14.13;8.77;;;;;;;20.40;65.62;101037.88;5073296;28;20051;-57
2021/07/12 08:20:32;;;;;;;9.57;6.50;;;;;;;20.49;64.83;101034.25;5073365;28;20368;-53
2021/07/12 08:23:00;;;;;;;12.30;7.35;;;;;;;20.56;64.69;101031.81;5073324;28;20040;-52
2021/07/12 08:25:28;;;;;;;10.65;6.80;;;;;;;20.60;64.40;101022.53;5073417;28;20406;-54
2021/07/12 08:27:55;;;;;;;11.00;6.63;;;;;;;20.67;63.82;101015.69;5073221;28;20067;-54
2021/07/12 08:30:23;;;;;;;11.93;6.28;;;;;;;20.67;62.70;101016.47;5072528;28;20047;-56
2021/07/12 08:32:50;;;;;;;10.93;5.80;;;;;;;20.66;62.74;101020.41;5072273;28;20044;-53
2021/07/12 08:35:18;;;;;;;9.93;5.05;;;;;;;20.64;62.55;101015.19;5072807;28;20036;-54
2021/07/12 08:37:49;;;;;;;10.45;5.15;;;;;;;20.67;62.05;101010.94;5072594;28;20107;-52
2021/07/12 08:40:21;;;;;;;11.20;5.68;;;;;;;20.68;61.95;101007.03;5072893;28;20414;-51
2021/07/12 08:42:57;;;;;;;10.95;6.72;;;;;;;20.70;62.22;101010.28;5054874;28;20084;-57
2021/07/12 08:45:26;;;;;;;9.25;5.53;;;;;;;20.75;60.95;101009.28;5072334;28;20462;-57
2021/07/12 08:47:55;;;;;;;6.15;4.32;;;;;;;20.78;60.58;101008.59;5072979;28;20441;-57
2021/07/12 08:50:24;;;;;;;8.30;4.90;;;;;;;20.81;59.74;101005.19;5073024;28;20115;-58
2021/07/12 08:52:53;;;;;;;9.88;5.80;;;;;;;20.82;60.32;101004.84;5072547;28;20048;-56
2021/07/12 08:55:21;;;;;;;9.48;5.72;;;;;;;20.85;61.02;101006.13;5072817;28;20059;-52
2021/07/12 08:58:21;;;;;;;9.02;4.82;;;;;;;20.91;61.73;101006.78;5072326;28;20052;-56
2021/07/12 09:00:52;;;;;;;8.02;4.40;;;;;;;20.94;60.46;101008.88;5054817;28;20053;-56
2021/07/12 09:03:24;;;;;;;6.90;4.07;;;;;;;20.95;59.68;101000.22;5072681;28;20050;-55
2021/07/12 09:06:03;;;;;;;99.35;14.68;;;;;;;20.99;58.97;101005.91;5072355;28;20052;-56
2021/07/12 09:08:52;;;;;;;19.67;5.68;;;;;;;21.06;59.91;100990.38;5072405;28;20044;-53
2021/07/12 09:11:33;;;;;;;10.23;6.20;;;;;;;21.15;60.46;100993.09;5072467;28;20047;-56
2021/07/12 09:14:07;;;;;;;11.70;5.78;;;;;;;21.23;60.17;101000.53;5054100;28;20047;-55
2021/07/12 09:16:39;;;;;;;17.30;6.20;;;;;;;21.31;60.22;100996.09;5072532;28;20036;-55
2021/07/12 09:19:22;;;;;;;11.57;5.57;;;;;;;21.44;59.84;100994.25;5054316;28;20036;-55
2021/07/12 09:21:53;;;;;;;14.50;5.88;;;;;;;21.53;59.13;100995.00;5072289;28;20132;-57
2021/07/12 09:24:45;;;;;;;9.82;4.72;;;;;;;21.57;59.20;100984.81;5072154;28;20394;-55
2021/07/12 09:27:14;;;;;;;10.02;4.47;;;;;;;21.57;58.27;100990.38;5071895;28;20510;-55
2021/07/12 09:29:50;;;;;;;10.18;4.25;;;;;;;21.60;58.25;100986.94;5071839;28;20422;-57
2021/07/12 09:32:23;;;;;;;13.45;4.53;;;;;;;21.65;58.32;100983.16;5071784;28;20044;-56
2021/07/12 09:35:20;;;;;;;11.65;5.10;;;;;;;21.87;57.76;100977.22;5072181;28;20058;-54
2021/07/12 09:37:56;;;;;;;8.93;4.20;;;;;;;21.99;57.15;100970.13;5072095;28;20045;-53
2021/07/12 09:40:24;;;;;;;7.82;4.00;;;;;;;21.99;57.03;100976.47;5072019;28;20131;-56
2021/07/12 09:42:52;;;;;;;11.70;5.50;;;;;;;22.05;56.69;100980.63;5071378;28;20036;-55
2021/07/12 09:45:22;;;;;;;13.60;5.22;;;;;;;22.09;54.77;100964.94;5071938;28;20051;-55
2021/07/12 09:47:51;;;;;;;7.07;3.70;;;;;;;22.11;54.25;100962.63;5053943;28;20063;-51
2021/07/12 09:50:20;;;;;;;5.55;3.38;;;;;;;22.11;54.04;100965.41;5071987;28;20043;-54
2021/07/12 09:53:00;;;;;;;6.03;3.90;;;;;;;22.07;53.47;100964.47;5071671;28;20044;-52
2021/07/12 09:55:30;;;;;;;8.98;3.75;;;;;;;22.07;53.73;100960.88;5053806;28;20045;-54
2021/07/12 09:58:17;;;;;;;8.70;3.58;;;;;;;22.13;53.22;100959.53;5054009;28;20041;-53
2021/07/12 10:00:51;;;;;;;7.25;3.10;;;;;;;22.17;52.79;100952.09;5072055;28;20166;-51
2021/07/12 10:03:21;;;;;;;6.03;3.20;;;;;;;22.19;52.37;100951.78;5033549;28;20057;-55
2021/07/12 10:05:54;;;;;;;24.67;14.40;;;;;;;22.20;54.26;100950.59;5052223;28;20056;-56
2021/07/12 10:08:22;;;;;;;14.35;9.05;;;;;;;22.22;54.99;100940.00;5051665;28;20136;-50
2021/07/12 10:10:49;;;;;;;19.50;11.02;;;;;;;22.22;54.80;100940.00;5033563;28;20048;-54
2021/07/12 10:13:18;;;;;;;13.02;9.52;;;;;;;22.19;55.42;100937.91;5051683;28;20080;-55
2021/07/12 10:15:46;;;;;;;27.25;12.27;;;;;;;22.17;55.19;100937.44;5033085;28;20121;-53
2021/07/12 10:18:14;;;;;;;20.60;9.38;;;;;;;22.12;56.00;100939.25;5067032;28;20120;-51
2021/07/12 10:20:42;;;;;;;18.45;7.75;;;;;;;22.13;55.62;100948.41;5051596;28;20049;-51
2021/07/12 10:23:09;;;;;;;16.77;6.65;;;;;;;22.19;55.34;100937.91;5034076;28;20045;-51
2021/07/12 10:25:48;;;;;;;12.38;7.03;;;;;;;22.19;55.08;100946.22;5051047;28;20049;-52
2021/07/12 10:28:43;;;;;;;237.25;35.00;;;;;;;22.19;55.56;100951.78;5051602;28;20037;-52
2021/07/12 10:31:21;;;;;;;21.27;6.00;;;;;;;22.25;53.96;100950.44;5033617;28;20037;-52
2021/07/12 10:33:48;;;;;;;14.25;6.53;;;;;;;22.33;53.58;100946.75;5051587;28;20048;-52
2021/07/12 10:36:38;;;;;;;10.77;6.85;;;;;;;22.44;53.89;100947.91;5051469;28;20045;-53
2021/07/12 10:39:06;;;;;;;403.52;58.03;;;;;;;22.45;54.08;100952.31;5050892;28;20037;-51
2021/07/12 10:41:49;;;;;;;60.58;14.02;;;;;;;22.40;53.29;100935.88;5051116;28;20084;-51
2021/07/12 10:44:16;;;;;;;50.85;13.00;;;;;;;22.40;54.12;100946.19;5051223;28;20103;-52
2021/07/12 10:46:44;;;;;;;13.57;5.00;;;;;;;22.46;53.18;100942.81;5051286;28;20056;-53
2021/07/12 10:49:34;;;;;;;15.90;5.65;;;;;;;22.55;52.93;100935.19;5051558;28;20132;-52
2021/07/12 10:52:04;;;;;;;9.23;5.13;;;;;;;22.62;51.99;100936.59;5066575;28;20076;-50
2021/07/12 10:55:00;;;;;;;8.45;4.85;;;;;;;22.70;51.64;100935.66;5050730;28;20091;-53
2021/07/12 10:57:29;;;;;;;7.45;4.60;;;;;;;22.70;50.76;100938.44;5055184;28;20063;-54
2021/07/12 11:00:11;;;;;;;10.80;5.13;;;;;;;22.69;50.92;100931.25;5036999;28;20047;-50
2021/07/12 11:02:40;;;;;;;5.35;4.15;;;;;;;22.72;50.58;100925.00;5069661;28;20057;-53
2021/07/12 11:05:13;;;;;;;6.28;4.47;;;;;;;22.71;50.95;100923.41;5074609;28;20044;-50
2021/07/12 11:07:47;;;;;;;8.75;4.95;;;;;;;22.70;52.09;100924.53;5074755;28;20076;-51
2021/07/12 11:10:31;;;;;;;7.97;4.85;;;;;;;22.73;52.29;100926.63;5074239;28;20491;-52
2021/07/12 11:12:59;;;;;;;8.60;4.53;;;;;;;22.77;51.93;100924.75;5074268;28;20131;-55
2021/07/12 11:15:32;;;;;;;9.20;4.53;;;;;;;22.77;51.51;100927.53;5074090;28;20532;-54
2021/07/12 11:18:04;;;;;;;12.13;5.05;;;;;;;22.73;51.80;100923.88;5074654;28;20037;-53
2021/07/12 11:20:42;;;;;;;9.20;4.50;;;;;;;22.73;51.80;100932.19;5074463;28;20045;-53
2021/07/12 11:23:48;;;;;;;10.27;4.38;;;;;;;22.76;50.73;100926.75;5074309;28;20047;-52
2021/07/12 11:26:24;;;;;;;8.52;4.10;;;;;;;22.77;50.45;100927.53;5074453;28;20139;-53
2021/07/12 11:28:57;;;;;;;10.38;3.90;;;;;;;22.78;49.72;100934.72;5074094;28;20048;-53
2021/07/12 11:31:41;;;;;;;5.10;3.50;;;;;;;22.79;49.08;100930.78;5074249;28;20065;-53
2021/07/12 11:34:17;;;;;;;8.77;3.72;;;;;;;22.85;48.87;100923.00;5056397;28;20048;-51
2021/07/12 11:36:48;;;;;;;6.60;3.90;;;;;;;22.93;49.46;100925.69;5074273;28;20402;-52
2021/07/12 11:39:58;;;;;;;11.10;3.83;;;;;;;23.00;50.03;100918.75;5073517;28;20514;-49